Terminal Aerodrome Forecast
Issued by NWS

Home | Current Version | Previous Version | Text Only | Print | Product List | Glossary On
Versions: 1 2 3 4 5 6 7 8 9 10 11 12 13 14 15 16 17 18 19 20 21
000
FTUS42 KFFC 061127
TAFRYY
TAF
KRYY 061127Z 0612/0712 34007KT P6SM BKN012
      TEMPO 0612/0614 6SM -FZDZSN
     FM061400 01007KT P6SM BKN025
     FM061800 32003KT P6SM SCT035
     FM070000 32004KT P6SM SKC=

USA.gov is the U.S. government's official web portal to all federal, state and local government web resources and services.